sensor_id;sensor_type;location;lat;lon;timestamp;pressure;altitude;pressure_sealevel;temperature
24201;BMP280;2801;50.972;7.856;2023-06-14T00:00:03;97437.94;;;13.03
24201;BMP280;2801;50.972;7.856;2023-06-14T00:02:31;97446.56;;;12.96
24201;BMP280;2801;50.972;7.856;2023-06-14T00:04:58;97442.84;;;12.89
24201;BMP280;2801;50.972;7.856;2023-06-14T00:07:38;97444.56;;;12.81
24201;BMP280;2801;50.972;7.856;2023-06-14T00:10:13;97447.25;;;12.81
24201;BMP280;2801;50.972;7.856;2023-06-14T00:12:41;97449.03;;;12.77
24201;BMP280;2801;50.972;7.856;2023-06-14T00:15:10;97448.56;;;12.75
24201;BMP280;2801;50.972;7.856;2023-06-14T00:17:37;97450.03;;;12.73
24201;BMP280;2801;50.972;7.856;2023-06-14T00:20:06;97444.75;;;12.64
24201;BMP280;2801;50.972;7.856;2023-06-14T00:22:33;97450.84;;;12.61
24201;BMP280;2801;50.972;7.856;2023-06-14T00:25:01;97448.25;;;12.53
24201;BMP280;2801;50.972;7.856;2023-06-14T00:27:48;97460.47;;;12.50
24201;BMP280;2801;50.972;7.856;2023-06-14T00:30:14;97461.91;;;12.48
24201;BMP280;2801;50.972;7.856;2023-06-14T00:32:43;97457.88;;;12.42
24201;BMP280;2801;50.972;7.856;2023-06-14T00:35:11;97455.41;;;12.37
24201;BMP280;2801;50.972;7.856;2023-06-14T00:37:38;97456.75;;;12.31
24201;BMP280;2801;50.972;7.856;2023-06-14T00:40:07;97460.97;;;12.20
24201;BMP280;2801;50.972;7.856;2023-06-14T00:42:34;97456.00;;;12.10
24201;BMP280;2801;50.972;7.856;2023-06-14T00:45:01;97467.56;;;12.10
24201;BMP280;2801;50.972;7.856;2023-06-14T00:47:28;97463.63;;;12.08
24201;BMP280;2801;50.972;7.856;2023-06-14T00:49:56;97456.88;;;12.02
24201;BMP280;2801;50.972;7.856;2023-06-14T00:52:24;97457.22;;;12.00
24201;BMP280;2801;50.972;7.856;2023-06-14T00:54:51;97457.53;;;11.99
24201;BMP280;2801;50.972;7.856;2023-06-14T00:57:19;97456.84;;;11.90
24201;BMP280;2801;50.972;7.856;2023-06-14T00:59:48;97466.03;;;11.89
24201;BMP280;2801;50.972;7.856;2023-06-14T01:02:16;97463.03;;;11.90
24201;BMP280;2801;50.972;7.856;2023-06-14T01:04:48;97467.28;;;11.91
24201;BMP280;2801;50.972;7.856;2023-06-14T01:10:55;97474.69;;;11.94
24201;BMP280;2801;50.972;7.856;2023-06-14T01:13:34;97478.34;;;11.90
24201;BMP280;2801;50.972;7.856;2023-06-14T01:16:02;97475.41;;;11.83
24201;BMP280;2801;50.972;7.856;2023-06-14T01:18:30;97473.38;;;11.80
24201;BMP280;2801;50.972;7.856;2023-06-14T01:20:58;97477.31;;;11.82
24201;BMP280;2801;50.972;7.856;2023-06-14T01:23:25;97473.03;;;11.81
24201;BMP280;2801;50.972;7.856;2023-06-14T01:26:00;97478.75;;;11.80
24201;BMP280;2801;50.972;7.856;2023-06-14T01:28:31;97469.59;;;11.81
24201;BMP280;2801;50.972;7.856;2023-06-14T01:31:02;97471.16;;;11.82
24201;BMP280;2801;50.972;7.856;2023-06-14T01:33:33;97475.47;;;11.74
24201;BMP280;2801;50.972;7.856;2023-06-14T01:36:02;97460.44;;;11.61
24201;BMP280;2801;50.972;7.856;2023-06-14T01:38:32;97469.28;;;11.62
24201;BMP280;2801;50.972;7.856;2023-06-14T01:41:00;97466.31;;;11.55
24201;BMP280;2801;50.972;7.856;2023-06-14T01:43:30;97480.38;;;11.52
24201;BMP280;2801;50.972;7.856;2023-06-14T01:45:59;97474.09;;;11.48
24201;BMP280;2801;50.972;7.856;2023-06-14T01:48:26;97470.31;;;11.49
24201;BMP280;2801;50.972;7.856;2023-06-14T01:50:54;97476.47;;;11.49
24201;BMP280;2801;50.972;7.856;2023-06-14T01:53:21;97465.72;;;11.49
24201;BMP280;2801;50.972;7.856;2023-06-14T01:55:48;97473.13;;;11.52
24201;BMP280;2801;50.972;7.856;2023-06-14T01:58:16;97479.75;;;11.55
24201;BMP280;2801;50.972;7.856;2023-06-14T02:00:43;97463.81;;;11.50
24201;BMP280;2801;50.972;7.856;2023-06-14T02:03:11;97474.69;;;11.53
24201;BMP280;2801;50.972;7.856;2023-06-14T02:05:39;97470.31;;;11.49
24201;BMP280;2801;50.972;7.856;2023-06-14T02:08:07;97460.53;;;11.44
24201;BMP280;2801;50.972;7.856;2023-06-14T02:10:34;97464.66;;;11.42
24201;BMP280;2801;50.972;7.856;2023-06-14T02:13:02;97465.00;;;11.40
24201;BMP280;2801;50.972;7.856;2023-06-14T02:15:29;97469.78;;;11.34
24201;BMP280;2801;50.972;7.856;2023-06-14T02:18:02;97459.56;;;11.28
24201;BMP280;2801;50.972;7.856;2023-06-14T02:20:30;97468.25;;;11.25
24201;BMP280;2801;50.972;7.856;2023-06-14T02:22:57;97472.06;;;11.24
24201;BMP280;2801;50.972;7.856;2023-06-14T02:25:24;97468.16;;;11.21
24201;BMP280;2801;50.972;7.856;2023-06-14T02:27:55;97462.97;;;11.16
24201;BMP280;2801;50.972;7.856;2023-06-14T02:30:22;97470.22;;;11.16
24201;BMP280;2801;50.972;7.856;2023-06-14T02:32:49;97467.75;;;11.11
24201;BMP280;2801;50.972;7.856;2023-06-14T02:35:18;97458.91;;;11.10
24201;BMP280;2801;50.972;7.856;2023-06-14T02:37:45;97466.94;;;11.10
24201;BMP280;2801;50.972;7.856;2023-06-14T02:40:12;97459.09;;;11.05
24201;BMP280;2801;50.972;7.856;2023-06-14T02:42:40;97466.16;;;11.10
24201;BMP280;2801;50.972;7.856;2023-06-14T02:45:07;97459.69;;;11.11
24201;BMP280;2801;50.972;7.856;2023-06-14T02:47:35;97460.47;;;11.11
24201;BMP280;2801;50.972;7.856;2023-06-14T02:50:02;97457.47;;;11.13
24201;BMP280;2801;50.972;7.856;2023-06-14T02:52:29;97461.59;;;11.10
24201;BMP280;2801;50.972;7.856;2023-06-14T02:54:56;97469.31;;;11.12
24201;BMP280;2801;50.972;7.856;2023-06-14T02:57:24;97463.34;;;11.06
24201;BMP280;2801;50.972;7.856;2023-06-14T02:59:51;97471.41;;;11.06
24201;BMP280;2801;50.972;7.856;2023-06-14T03:02:19;97476.75;;;11.06
24201;BMP280;2801;50.972;7.856;2023-06-14T03:04:46;97478.97;;;11.04
24201;BMP280;2801;50.972;7.856;2023-06-14T03:07:13;97474.28;;;11.01
24201;BMP280;2801;50.972;7.856;2023-06-14T03:09:48;97478.97;;;11.04
24201;BMP280;2801;50.972;7.856;2023-06-14T03:12:15;97486.56;;;11.02
24201;BMP280;2801;50.972;7.856;2023-06-14T03:14:42;97478.22;;;11.04
24201;BMP280;2801;50.972;7.856;2023-06-14T03:17:09;97479.78;;;11.05
24201;BMP280;2801;50.972;7.856;2023-06-14T03:19:37;97478.53;;;11.02
24201;BMP280;2801;50.972;7.856;2023-06-14T03:22:04;97484.34;;;11.04
24201;BMP280;2801;50.972;7.856;2023-06-14T03:24:31;97491.28;;;11.05
24201;BMP280;2801;50.972;7.856;2023-06-14T03:27:03;97497.44;;;11.06
24201;BMP280;2801;50.972;7.856;2023-06-14T03:29:30;97493.19;;;11.05
24201;BMP280;2801;50.972;7.856;2023-06-14T03:32:00;97497.09;;;11.07
24201;BMP280;2801;50.972;7.856;2023-06-14T03:34:28;97497.59;;;11.09
24201;BMP280;2801;50.972;7.856;2023-06-14T03:36:55;97492.22;;;11.09
24201;BMP280;2801;50.972;7.856;2023-06-14T03:39:22;97496.78;;;11.09
24201;BMP280;2801;50.972;7.856;2023-06-14T03:41:49;97508.75;;;11.11
24201;BMP280;2801;50.972;7.856;2023-06-14T03:44:17;97520.28;;;11.12
24201;BMP280;2801;50.972;7.856;2023-06-14T03:46:46;97519.97;;;11.13
24201;BMP280;2801;50.972;7.856;2023-06-14T03:49:13;97520.16;;;11.08
24201;BMP280;2801;50.972;7.856;2023-06-14T03:51:40;97528.47;;;11.15
24201;BMP280;2801;50.972;7.856;2023-06-14T03:54:08;97525.78;;;11.15
24201;BMP280;2801;50.972;7.856;2023-06-14T03:56:38;97531.75;;;11.21
24201;BMP280;2801;50.972;7.856;2023-06-14T03:59:05;97527.44;;;11.28
24201;BMP280;2801;50.972;7.856;2023-06-14T04:01:32;97538.31;;;11.32
24201;BMP280;2801;50.972;7.856;2023-06-14T04:04:00;97533.25;;;11.30
24201;BMP280;2801;50.972;7.856;2023-06-14T04:06:28;97538.75;;;11.43
24201;BMP280;2801;50.972;7.856;2023-06-14T04:09:00;97533.50;;;11.46
24201;BMP280;2801;50.972;7.856;2023-06-14T04:11:30;97539.56;;;11.55
24201;BMP280;2801;50.972;7.856;2023-06-14T04:13:58;97546.03;;;11.63
24201;BMP280;2801;50.972;7.856;2023-06-14T04:16:26;97549.44;;;11.72
24201;BMP280;2801;50.972;7.856;2023-06-14T04:18:55;97542.50;;;11.71
24201;BMP280;2801;50.972;7.856;2023-06-14T04:21:22;97553.78;;;11.85
24201;BMP280;2801;50.972;7.856;2023-06-14T04:23:49;97559.84;;;11.94
24201;BMP280;2801;50.972;7.856;2023-06-14T04:26:19;97562.78;;;12.01
24201;BMP280;2801;50.972;7.856;2023-06-14T04:28:49;97555.31;;;12.06
24201;BMP280;2801;50.972;7.856;2023-06-14T04:31:17;97557.94;;;12.15
24201;BMP280;2801;50.972;7.856;2023-06-14T04:33:45;97555.28;;;12.27
24201;BMP280;2801;50.972;7.856;2023-06-14T04:36:13;97555.53;;;12.34
24201;BMP280;2801;50.972;7.856;2023-06-14T04:38:44;97549.72;;;12.44
24201;BMP280;2801;50.972;7.856;2023-06-14T04:41:16;97561.75;;;12.58
24201;BMP280;2801;50.972;7.856;2023-06-14T04:43:45;97554.38;;;12.67
24201;BMP280;2801;50.972;7.856;2023-06-14T04:46:15;97552.03;;;12.78
24201;BMP280;2801;50.972;7.856;2023-06-14T04:48:44;97548.47;;;12.86
24201;BMP280;2801;50.972;7.856;2023-06-14T04:51:12;97551.31;;;13.01
24201;BMP280;2801;50.972;7.856;2023-06-14T04:53:39;97538.75;;;13.05
24201;BMP280;2801;50.972;7.856;2023-06-14T04:56:06;97554.56;;;13.31
24201;BMP280;2801;50.972;7.856;2023-06-14T04:58:33;97547.94;;;13.40
24201;BMP280;2801;50.972;7.856;2023-06-14T05:01:00;97550.13;;;13.74
24201;BMP280;2801;50.972;7.856;2023-06-14T05:03:28;97544.88;;;14.48
24201;BMP280;2801;50.972;7.856;2023-06-14T05:05:57;97539.94;;;15.44
24201;BMP280;2801;50.972;7.856;2023-06-14T05:08:24;97546.53;;;16.38
24201;BMP280;2801;50.972;7.856;2023-06-14T05:10:51;97534.84;;;17.20
24201;BMP280;2801;50.972;7.856;2023-06-14T05:13:18;97532.41;;;17.90
24201;BMP280;2801;50.972;7.856;2023-06-14T05:15:45;97536.97;;;18.49
24201;BMP280;2801;50.972;7.856;2023-06-14T05:18:12;97533.63;;;19.06
24201;BMP280;2801;50.972;7.856;2023-06-14T05:20:41;97530.59;;;19.65
24201;BMP280;2801;50.972;7.856;2023-06-14T05:23:09;97525.44;;;20.14
24201;BMP280;2801;50.972;7.856;2023-06-14T05:25:45;97523.59;;;20.56
24201;BMP280;2801;50.972;7.856;2023-06-14T05:28:13;97521.34;;;21.04
24201;BMP280;2801;50.972;7.856;2023-06-14T05:30:40;97531.06;;;21.40
24201;BMP280;2801;50.972;7.856;2023-06-14T05:33:08;97518.16;;;21.69
24201;BMP280;2801;50.972;7.856;2023-06-14T05:35:35;97522.38;;;22.01
24201;BMP280;2801;50.972;7.856;2023-06-14T05:38:02;97525.81;;;22.23
24201;BMP280;2801;50.972;7.856;2023-06-14T05:40:29;97515.91;;;22.53
24201;BMP280;2801;50.972;7.856;2023-06-14T05:42:56;97513.41;;;22.80
24201;BMP280;2801;50.972;7.856;2023-06-14T05:45:23;97508.56;;;23.01
24201;BMP280;2801;50.972;7.856;2023-06-14T05:47:50;97510.44;;;23.08
24201;BMP280;2801;50.972;7.856;2023-06-14T05:50:17;97521.31;;;23.22
24201;BMP280;2801;50.972;7.856;2023-06-14T05:52:44;97522.88;;;23.16
24201;BMP280;2801;50.972;7.856;2023-06-14T05:55:13;97510.09;;;23.06
24201;BMP280;2801;50.972;7.856;2023-06-14T05:57:40;97516.31;;;23.06
24201;BMP280;2801;50.972;7.856;2023-06-14T06:00:09;97517.09;;;23.07
24201;BMP280;2801;50.972;7.856;2023-06-14T06:02:44;97515.50;;;23.09
24201;BMP280;2801;50.972;7.856;2023-06-14T06:05:13;97519.03;;;23.10
24201;BMP280;2801;50.972;7.856;2023-06-14T06:07:42;97517.56;;;22.98
24201;BMP280;2801;50.972;7.856;2023-06-14T06:10:12;97516.84;;;22.91
24201;BMP280;2801;50.972;7.856;2023-06-14T06:12:41;97521.47;;;22.94
24201;BMP280;2801;50.972;7.856;2023-06-14T06:15:08;97521.22;;;22.81
24201;BMP280;2801;50.972;7.856;2023-06-14T06:17:40;97525.13;;;22.77
24201;BMP280;2801;50.972;7.856;2023-06-14T06:20:22;97525.91;;;22.77
24201;BMP280;2801;50.972;7.856;2023-06-14T06:22:55;97517.19;;;22.96
24201;BMP280;2801;50.972;7.856;2023-06-14T06:25:23;97518.22;;;23.13
24201;BMP280;2801;50.972;7.856;2023-06-14T06:27:55;97522.47;;;23.17
24201;BMP280;2801;50.972;7.856;2023-06-14T06:30:25;97519.31;;;23.22
24201;BMP280;2801;50.972;7.856;2023-06-14T06:32:52;97520.75;;;23.37
24201;BMP280;2801;50.972;7.856;2023-06-14T06:35:20;97525.75;;;23.49
24201;BMP280;2801;50.972;7.856;2023-06-14T06:37:47;97523.19;;;23.69
24201;BMP280;2801;50.972;7.856;2023-06-14T06:40:14;97519.16;;;23.80
24201;BMP280;2801;50.972;7.856;2023-06-14T06:42:41;97523.38;;;23.88
24201;BMP280;2801;50.972;7.856;2023-06-14T06:45:09;97529.66;;;23.85
24201;BMP280;2801;50.972;7.856;2023-06-14T06:47:36;97527.25;;;23.94
24201;BMP280;2801;50.972;7.856;2023-06-14T06:50:03;97528.44;;;24.27
24201;BMP280;2801;50.972;7.856;2023-06-14T06:52:31;97524.88;;;24.60
24201;BMP280;2801;50.972;7.856;2023-06-14T06:54:58;97530.66;;;24.92
24201;BMP280;2801;50.972;7.856;2023-06-14T06:57:24;97531.38;;;25.23
24201;BMP280;2801;50.972;7.856;2023-06-14T06:59:52;97530.00;;;25.57
24201;BMP280;2801;50.972;7.856;2023-06-14T07:02:19;97532.09;;;25.73
24201;BMP280;2801;50.972;7.856;2023-06-14T07:04:46;97529.06;;;25.87
24201;BMP280;2801;50.972;7.856;2023-06-14T07:07:13;97525.19;;;26.07
24201;BMP280;2801;50.972;7.856;2023-06-14T07:09:40;97516.84;;;26.30
24201;BMP280;2801;50.972;7.856;2023-06-14T07:12:08;97519.44;;;26.37
24201;BMP280;2801;50.972;7.856;2023-06-14T07:14:35;97519.56;;;26.50
24201;BMP280;2801;50.972;7.856;2023-06-14T07:17:02;97523.44;;;26.52
24201;BMP280;2801;50.972;7.856;2023-06-14T07:19:29;97527.53;;;26.64
24201;BMP280;2801;50.972;7.856;2023-06-14T07:21:57;97524.56;;;26.55
24201;BMP280;2801;50.972;7.856;2023-06-14T07:24:25;97534.34;;;26.56
24201;BMP280;2801;50.972;7.856;2023-06-14T07:26:52;97522.72;;;26.48
24201;BMP280;2801;50.972;7.856;2023-06-14T07:29:20;97529.00;;;26.49
24201;BMP280;2801;50.972;7.856;2023-06-14T07:31:47;97529.00;;;26.49
24201;BMP280;2801;50.972;7.856;2023-06-14T07:34:14;97536.75;;;26.54
24201;BMP280;2801;50.972;7.856;2023-06-14T07:36:41;97534.78;;;26.74
24201;BMP280;2801;50.972;7.856;2023-06-14T07:39:11;97528.94;;;26.88
24201;BMP280;2801;50.972;7.856;2023-06-14T07:41:38;97521.41;;;27.24
24201;BMP280;2801;50.972;7.856;2023-06-14T07:44:05;97520.44;;;27.62
24201;BMP280;2801;50.972;7.856;2023-06-14T07:46:32;97515.97;;;27.97
24201;BMP280;2801;50.972;7.856;2023-06-14T07:48:59;97517.97;;;28.38
24201;BMP280;2801;50.972;7.856;2023-06-14T07:51:26;97512.19;;;28.61
24201;BMP280;2801;50.972;7.856;2023-06-14T07:53:53;97512.34;;;28.41
24201;BMP280;2801;50.972;7.856;2023-06-14T07:56:20;97510.72;;;28.56
24201;BMP280;2801;50.972;7.856;2023-06-14T07:58:50;97509.53;;;28.95
24201;BMP280;2801;50.972;7.856;2023-06-14T08:01:19;97510.31;;;29.08
24201;BMP280;2801;50.972;7.856;2023-06-14T08:03:46;97512.16;;;28.98
24201;BMP280;2801;50.972;7.856;2023-06-14T08:06:14;97516.81;;;29.26
24201;BMP280;2801;50.972;7.856;2023-06-14T08:08:42;97519.50;;;29.64
24201;BMP280;2801;50.972;7.856;2023-06-14T08:11:09;97525.41;;;29.87
24201;BMP280;2801;50.972;7.856;2023-06-14T08:13:35;97507.47;;;29.92
24201;BMP280;2801;50.972;7.856;2023-06-14T08:16:02;97520.31;;;30.07
24201;BMP280;2801;50.972;7.856;2023-06-14T08:18:31;97515.88;;;30.53
24201;BMP280;2801;50.972;7.856;2023-06-14T08:20:58;97503.44;;;30.79
24201;BMP280;2801;50.972;7.856;2023-06-14T08:23:25;97511.94;;;30.93
24201;BMP280;2801;50.972;7.856;2023-06-14T08:25:53;97508.16;;;31.18
24201;BMP280;2801;50.972;7.856;2023-06-14T08:28:20;97497.63;;;31.26
24201;BMP280;2801;50.972;7.856;2023-06-14T08:30:47;97509.44;;;31.26
24201;BMP280;2801;50.972;7.856;2023-06-14T08:33:14;97511.75;;;31.28
24201;BMP280;2801;50.972;7.856;2023-06-14T08:35:44;97503.25;;;31.22
24201;BMP280;2801;50.972;7.856;2023-06-14T08:38:11;97516.81;;;31.20
24201;BMP280;2801;50.972;7.856;2023-06-14T08:40:41;97516.13;;;30.98
24201;BMP280;2801;50.972;7.856;2023-06-14T08:43:09;97512.19;;;30.77
24201;BMP280;2801;50.972;7.856;2023-06-14T08:45:36;97517.88;;;30.52
24201;BMP280;2801;50.972;7.856;2023-06-14T08:48:04;97513.19;;;30.40
24201;BMP280;2801;50.972;7.856;2023-06-14T08:50:36;97516.22;;;30.33
24201;BMP280;2801;50.972;7.856;2023-06-14T08:53:07;97514.13;;;30.16
24201;BMP280;2801;50.972;7.856;2023-06-14T08:55:38;97515.56;;;29.86
24201;BMP280;2801;50.972;7.856;2023-06-14T08:58:09;97518.34;;;29.86
24201;BMP280;2801;50.972;7.856;2023-06-14T09:00:42;97502.28;;;29.47
24201;BMP280;2801;50.972;7.856;2023-06-14T09:03:10;97514.38;;;29.16
24201;BMP280;2801;50.972;7.856;2023-06-14T09:05:40;97515.47;;;28.56
24201;BMP280;2801;50.972;7.856;2023-06-14T09:08:07;97525.19;;;28.19
24201;BMP280;2801;50.972;7.856;2023-06-14T09:10:35;97529.41;;;27.95
24201;BMP280;2801;50.972;7.856;2023-06-14T09:13:05;97530.50;;;27.69
24201;BMP280;2801;50.972;7.856;2023-06-14T09:15:32;97534.06;;;27.37
24201;BMP280;2801;50.972;7.856;2023-06-14T09:18:02;97537.91;;;27.08
24201;BMP280;2801;50.972;7.856;2023-06-14T09:20:31;97541.13;;;26.87
24201;BMP280;2801;50.972;7.856;2023-06-14T09:23:00;97534.63;;;27.13
24201;BMP280;2801;50.972;7.856;2023-06-14T09:25:27;97533.88;;;27.44
24201;BMP280;2801;50.972;7.856;2023-06-14T09:28:09;97535.09;;;27.27
24201;BMP280;2801;50.972;7.856;2023-06-14T09:30:40;97538.41;;;27.03
24201;BMP280;2801;50.972;7.856;2023-06-14T09:33:07;97542.81;;;27.16
24201;BMP280;2801;50.972;7.856;2023-06-14T09:35:35;97539.84;;;27.27
24201;BMP280;2801;50.972;7.856;2023-06-14T09:38:03;97558.84;;;27.21
24201;BMP280;2801;50.972;7.856;2023-06-14T09:40:34;97564.22;;;27.09
24201;BMP280;2801;50.972;7.856;2023-06-14T09:43:06;97560.25;;;26.94
24201;BMP280;2801;50.972;7.856;2023-06-14T09:45:38;97560.56;;;26.80
24201;BMP280;2801;50.972;7.856;2023-06-14T09:48:07;97559.38;;;26.81
24201;BMP280;2801;50.972;7.856;2023-06-14T09:50:39;97563.94;;;26.87
24201;BMP280;2801;50.972;7.856;2023-06-14T09:53:10;97571.00;;;26.69
24201;BMP280;2801;50.972;7.856;2023-06-14T09:55:41;97573.97;;;26.58
24201;BMP280;2801;50.972;7.856;2023-06-14T09:58:10;97569.22;;;26.78
24201;BMP280;2801;50.972;7.856;2023-06-14T10:00:39;97568.72;;;27.35
24201;BMP280;2801;50.972;7.856;2023-06-14T10:03:18;97572.78;;;28.07
24201;BMP280;2801;50.972;7.856;2023-06-14T10:05:50;97562.47;;;28.24
24201;BMP280;2801;50.972;7.856;2023-06-14T10:08:23;97575.91;;;28.09
24201;BMP280;2801;50.972;7.856;2023-06-14T10:10:55;97576.13;;;28.15
24201;BMP280;2801;50.972;7.856;2023-06-14T10:13:26;97574.56;;;28.14
24201;BMP280;2801;50.972;7.856;2023-06-14T10:16:18;97569.66;;;28.21
24201;BMP280;2801;50.972;7.856;2023-06-14T10:18:55;97574.13;;;28.15
24201;BMP280;2801;50.972;7.856;2023-06-14T10:22:00;97568.28;;;28.13
24201;BMP280;2801;50.972;7.856;2023-06-14T10:24:35;97570.47;;;28.06
24201;BMP280;2801;50.972;7.856;2023-06-14T10:27:07;97574.38;;;27.76
24201;BMP280;2801;50.972;7.856;2023-06-14T10:32:21;97586.47;;;26.63
24201;BMP280;2801;50.972;7.856;2023-06-14T10:35:00;97588.78;;;26.25
24201;BMP280;2801;50.972;7.856;2023-06-14T10:37:27;97574.91;;;25.90
24201;BMP280;2801;50.972;7.856;2023-06-14T10:39:54;97586.47;;;25.58
24201;BMP280;2801;50.972;7.856;2023-06-14T10:42:21;97589.50;;;25.41
24201;BMP280;2801;50.972;7.856;2023-06-14T10:44:51;97592.13;;;25.48
24201;BMP280;2801;50.972;7.856;2023-06-14T10:47:34;97589.19;;;25.35
24201;BMP280;2801;50.972;7.856;2023-06-14T10:50:05;97592.44;;;25.27
24201;BMP280;2801;50.972;7.856;2023-06-14T10:52:37;97602.72;;;25.23
24201;BMP280;2801;50.972;7.856;2023-06-14T10:55:09;97603.59;;;24.90
24201;BMP280;2801;50.972;7.856;2023-06-14T10:57:51;97592.59;;;24.59
24201;BMP280;2801;50.972;7.856;2023-06-14T11:00:28;97593.47;;;24.53
24201;BMP280;2801;50.972;7.856;2023-06-14T11:05:59;97597.06;;;24.46
24201;BMP280;2801;50.972;7.856;2023-06-14T11:11:56;97588.56;;;24.37
24201;BMP280;2801;50.972;7.856;2023-06-14T11:14:23;97595.91;;;24.47
24201;BMP280;2801;50.972;7.856;2023-06-14T11:16:50;97593.41;;;24.56
24201;BMP280;2801;50.972;7.856;2023-06-14T11:19:17;97598.97;;;24.49
24201;BMP280;2801;50.972;7.856;2023-06-14T11:21:48;97582.75;;;24.35
24201;BMP280;2801;50.972;7.856;2023-06-14T11:24:16;97588.91;;;24.43
24201;BMP280;2801;50.972;7.856;2023-06-14T11:26:44;97589.84;;;24.29
24201;BMP280;2801;50.972;7.856;2023-06-14T11:29:10;97590.31;;;24.24
24201;BMP280;2801;50.972;7.856;2023-06-14T11:31:37;97585.22;;;24.23
24201;BMP280;2801;50.972;7.856;2023-06-14T11:34:09;97594.78;;;24.41
24201;BMP280;2801;50.972;7.856;2023-06-14T11:36:36;97594.44;;;24.36
24201;BMP280;2801;50.972;7.856;2023-06-14T11:39:05;97597.59;;;24.34
24201;BMP280;2801;50.972;7.856;2023-06-14T11:41:44;97598.25;;;24.45
24201;BMP280;2801;50.972;7.856;2023-06-14T11:44:12;97610.69;;;24.53
24201;BMP280;2801;50.972;7.856;2023-06-14T11:46:40;97583.69;;;24.52
24201;BMP280;2801;50.972;7.856;2023-06-14T11:49:08;97604.84;;;24.51
24201;BMP280;2801;50.972;7.856;2023-06-14T11:51:36;97590.13;;;24.38
24201;BMP280;2801;50.972;7.856;2023-06-14T11:54:06;97600.09;;;24.55
24201;BMP280;2801;50.972;7.856;2023-06-14T11:56:34;97602.03;;;24.58
24201;BMP280;2801;50.972;7.856;2023-06-14T11:59:03;97589.94;;;24.52
24201;BMP280;2801;50.972;7.856;2023-06-14T12:01:35;97597.28;;;24.63
24201;BMP280;2801;50.972;7.856;2023-06-14T12:04:03;97602.97;;;24.75
24201;BMP280;2801;50.972;7.856;2023-06-14T12:06:31;97597.50;;;24.75
24201;BMP280;2801;50.972;7.856;2023-06-14T12:09:07;97600.69;;;24.74
24201;BMP280;2801;50.972;7.856;2023-06-14T12:11:39;97606.91;;;24.74
24201;BMP280;2801;50.972;7.856;2023-06-14T12:14:08;97588.22;;;24.65
24201;BMP280;2801;50.972;7.856;2023-06-14T12:16:38;97608.06;;;24.77
24201;BMP280;2801;50.972;7.856;2023-06-14T12:19:16;97604.25;;;24.71
24201;BMP280;2801;50.972;7.856;2023-06-14T12:21:46;97599.84;;;24.77
24201;BMP280;2801;50.972;7.856;2023-06-14T12:24:16;97602.88;;;24.82
24201;BMP280;2801;50.972;7.856;2023-06-14T12:26:43;97587.16;;;24.86
24201;BMP280;2801;50.972;7.856;2023-06-14T12:29:10;97595.69;;;24.92
24201;BMP280;2801;50.972;7.856;2023-06-14T12:31:40;97597.75;;;25.14
24201;BMP280;2801;50.972;7.856;2023-06-14T12:34:07;97587.38;;;25.25
24201;BMP280;2801;50.972;7.856;2023-06-14T12:36:35;97591.38;;;25.21
24201;BMP280;2801;50.972;7.856;2023-06-14T12:39:07;97600.78;;;25.20
24201;BMP280;2801;50.972;7.856;2023-06-14T12:41:35;97594.81;;;25.25
24201;BMP280;2801;50.972;7.856;2023-06-14T12:44:03;97588.03;;;25.36
24201;BMP280;2801;50.972;7.856;2023-06-14T12:46:31;97591.41;;;25.44
24201;BMP280;2801;50.972;7.856;2023-06-14T12:48:59;97593.81;;;25.65
24201;BMP280;2801;50.972;7.856;2023-06-14T12:51:27;97586.59;;;25.74
24201;BMP280;2801;50.972;7.856;2023-06-14T12:53:53;97584.44;;;25.85
24201;BMP280;2801;50.972;7.856;2023-06-14T12:56:20;97587.28;;;26.01
24201;BMP280;2801;50.972;7.856;2023-06-14T12:58:50;97595.56;;;26.21
24201;BMP280;2801;50.972;7.856;2023-06-14T13:01:18;97597.53;;;26.40
24201;BMP280;2801;50.972;7.856;2023-06-14T13:03:47;97590.19;;;26.53
24201;BMP280;2801;50.972;7.856;2023-06-14T13:06:14;97582.88;;;26.66
24201;BMP280;2801;50.972;7.856;2023-06-14T13:08:41;97581.03;;;26.59
24201;BMP280;2801;50.972;7.856;2023-06-14T13:11:09;97581.31;;;26.26
24201;BMP280;2801;50.972;7.856;2023-06-14T13:13:36;97595.44;;;26.05
24201;BMP280;2801;50.972;7.856;2023-06-14T13:16:03;97585.03;;;26.16
24201;BMP280;2801;50.972;7.856;2023-06-14T13:18:30;97594.69;;;26.04
24201;BMP280;2801;50.972;7.856;2023-06-14T13:20:57;97594.94;;;25.67
24201;BMP280;2801;50.972;7.856;2023-06-14T13:23:24;97595.03;;;25.64
24201;BMP280;2801;50.972;7.856;2023-06-14T13:25:50;97597.16;;;25.76
24201;BMP280;2801;50.972;7.856;2023-06-14T13:28:17;97601.38;;;25.80
24201;BMP280;2801;50.972;7.856;2023-06-14T13:30:44;97598.19;;;25.62
24201;BMP280;2801;50.972;7.856;2023-06-14T13:33:13;97606.84;;;25.34
24201;BMP280;2801;50.972;7.856;2023-06-14T13:35:40;97600.31;;;25.51
24201;BMP280;2801;50.972;7.856;2023-06-14T13:38:09;97591.63;;;25.30
24201;BMP280;2801;50.972;7.856;2023-06-14T13:40:38;97593.22;;;25.27
24201;BMP280;2801;50.972;7.856;2023-06-14T13:43:05;97603.47;;;25.50
24201;BMP280;2801;50.972;7.856;2023-06-14T13:45:32;97602.06;;;25.65
24201;BMP280;2801;50.972;7.856;2023-06-14T13:47:58;97598.59;;;25.61
24201;BMP280;2801;50.972;7.856;2023-06-14T13:50:26;97600.97;;;25.36
24201;BMP280;2801;50.972;7.856;2023-06-14T13:52:53;97604.25;;;24.97
24201;BMP280;2801;50.972;7.856;2023-06-14T13:55:20;97603.94;;;24.92
24201;BMP280;2801;50.972;7.856;2023-06-14T13:57:47;97600.41;;;25.18
24201;BMP280;2801;50.972;7.856;2023-06-14T14:00:14;97591.78;;;25.46
24201;BMP280;2801;50.972;7.856;2023-06-14T14:02:42;97580.72;;;25.72
24201;BMP280;2801;50.972;7.856;2023-06-14T14:05:09;97577.28;;;26.11
24201;BMP280;2801;50.972;7.856;2023-06-14T14:07:36;97577.94;;;25.99
24201;BMP280;2801;50.972;7.856;2023-06-14T14:10:05;97577.97;;;25.95
24201;BMP280;2801;50.972;7.856;2023-06-14T14:12:32;97584.63;;;25.98
24201;BMP280;2801;50.972;7.856;2023-06-14T14:14:59;97575.38;;;26.08
24201;BMP280;2801;50.972;7.856;2023-06-14T14:17:26;97588.72;;;26.29
24201;BMP280;2801;50.972;7.856;2023-06-14T14:19:54;97586.53;;;26.40
24201;BMP280;2801;50.972;7.856;2023-06-14T14:22:21;97590.63;;;26.12
24201;BMP280;2801;50.972;7.856;2023-06-14T14:24:48;97581.59;;;26.31
24201;BMP280;2801;50.972;7.856;2023-06-14T14:27:14;97571.28;;;26.74
24201;BMP280;2801;50.972;7.856;2023-06-14T14:29:42;97568.06;;;26.79
24201;BMP280;2801;50.972;7.856;2023-06-14T14:32:09;97569.22;;;26.78
24201;BMP280;2801;50.972;7.856;2023-06-14T14:34:40;97579.84;;;26.41
24201;BMP280;2801;50.972;7.856;2023-06-14T14:37:07;97580.13;;;26.46
24201;BMP280;2801;50.972;7.856;2023-06-14T14:39:36;97588.22;;;26.34
24201;BMP280;2801;50.972;7.856;2023-06-14T14:42:03;97583.22;;;26.09